Flight Track Log - Related Links

Times and Time Zones

All times are in EDT time to prevent confusion due to time zone crossing. See the VH-NCA flight status page for this flight to view local times or setup timezone preferences in your user account.

Time Position Orientation Groundspeed Altitude Reporting Facility
EDT Latitude Longitude Course Direction KTS MPH feet Rate Location/Type
Wed 04:06:47 AM -35.1406 147.5389 76° East 9,000  Level Aus ATC (Calculated)
Wed 04:07:05 AM -35.1406 147.5389 76° East 9,000 -2,106 Level Aus ATC (Calculated)
Wed 04:07:45 AM -35.1155 147.6087 229° Southwest 9,000 -2,391 Level Aus ATC (Calculated)
Wed 04:09:00 AM -35.0961 147.6623 66° East  Level FlightAware Approximate
Wed 04:09:18 AM -35.1302 147.5882 66° East 100 115 3,700  Level Aus ATC (RADAR)
Wed 04:09:53 AM -35.1243 147.6068 69° East 101 116 4,000 568 Climbing Aus ATC (RADAR)
Wed 04:10:53 AM -35.1128 147.6406 68° East 109 125 4,600 550 Climbing Aus ATC (RADAR)
Wed 04:11:53 AM -35.1000 147.6740 65° Northeast 108 124 5,100 480 Climbing Aus ATC (RADAR)
Wed 04:12:33 AM -35.0908 147.6955 63° Northeast 107 123 5,400 480 Climbing Aus ATC (RADAR)
Wed 04:13:08 AM -35.0834 147.7153 65° Northeast 109 125 5,700 525 Climbing Aus ATC (RADAR)
Wed 04:13:53 AM -35.0738 147.7404 65° Northeast 108 124 6,100 491 Climbing Aus ATC (RADAR)
Wed 04:14:58 AM -35.0603 147.7784 67° East 115 132 6,600 504 Climbing Aus ATC (RADAR)
Wed 04:15:52 AM -35.0477 147.8119 65° Northeast 120 138 7,100 404 Climbing Aus ATC (RADAR)
Wed 04:16:42 AM -35.0346 147.8439 63° Northeast 124 143 7,300 379 Climbing Aus ATC (RADAR)
Wed 04:17:27 AM -35.0246 147.8721 67° East 121 139 7,700 525 Climbing Aus ATC (RADAR)
Wed 04:18:02 AM -35.0165 147.8946 66° East 123 142 8,000 494 Climbing Aus ATC (RADAR)
Wed 04:18:52 AM -35.0052 147.9272 67° East 126 145 8,400 545 Climbing Aus ATC (RADAR)
Wed 04:19:52 AM -34.9911 147.9668 67° East 127 146 9,000 288 Climbing Aus ATC (RADAR)
Wed 04:20:57 AM -34.9754 148.0159 69° East 148 170 9,000  Level Aus ATC (RADAR)
Wed 04:21:47 AM -34.9620 148.0566 68° East 152 175 9,000  Level Aus ATC (RADAR)
Wed 04:22:32 AM -34.9489 148.0929 66° East 155 178 9,000  Level Aus ATC (RADAR)
Wed 04:23:12 AM -34.9369 148.1238 65° Northeast 150 173 9,000  Level Aus ATC (RADAR)
Wed 04:23:57 AM -34.9224 148.1584 63° Northeast 151 174 9,000  Level Aus ATC (RADAR)
Wed 04:24:27 AM -34.9125 148.1812 62° Northeast 151 174 9,000  Level Aus ATC (RADAR)
Wed 04:25:02 AM -34.9003 148.2072 60° Northeast 151 174 9,000  Level Aus ATC (RADAR)
Wed 04:26:01 AM -34.8789 148.2513 59° Northeast 150 173 9,000  Level Aus ATC (RADAR)
Wed 04:27:01 AM -34.8583 148.2960 61° Northeast 149 171 9,000  Level Aus ATC (RADAR)
Wed 04:27:36 AM -34.8462 148.3219 60° Northeast 149 171 9,000  Level Aus ATC (RADAR)
Wed 04:28:11 AM -34.8346 148.3478 61° Northeast 148 170 9,000  Level Aus ATC (RADAR)
Wed 04:28:56 AM -34.8199 148.3813 62° Northeast 148 170 9,000  Level Aus ATC (RADAR)
Wed 04:29:56 AM -34.8009 148.4261 63° Northeast 148 170 9,000  Level Aus ATC (RADAR)
Wed 04:30:56 AM -34.7822 148.4713 63° Northeast 148 170 9,000  Level Aus ATC (RADAR)
Wed 04:31:56 AM -34.7634 148.5162 63° Northeast 148 170 9,000  Level Aus ATC (RADAR)
Wed 04:32:41 AM -34.7496 148.5500 64° Northeast 146 168 9,000  Level Aus ATC (RADAR)
Wed 04:33:21 AM -34.7367 148.5801 62° Northeast 148 170 9,000  Level Aus ATC (RADAR)
Wed 04:34:06 AM -34.7227 148.6139 63° Northeast 147 169 9,000  Level Aus ATC (RADAR)
Wed 04:35:06 AM -34.7033 148.6586 62° Northeast 148 170 9,000  Level Aus ATC (RADAR)
Wed 04:36:06 AM -34.6841 148.7042 63° Northeast 149 171 9,000  Level Aus ATC (RADAR)
Wed 04:37:06 AM -34.6643 148.7495 62° Northeast 150 173 9,000  Level Aus ATC (RADAR)
Wed 04:37:51 AM -34.6499 148.7837 63° Northeast 150 173 9,000  Level Aus ATC (RADAR)
Wed 04:38:26 AM -34.6386 148.8101 63° Northeast 148 170 9,000  Level Aus ATC (RADAR)
Wed 04:39:10 AM -34.6240 148.8441 62° Northeast 148 170 9,000  Level Aus ATC (RADAR)
Wed 04:40:10 AM -34.6042 148.8896 62° Northeast 150 173 9,000  Level Aus ATC (RADAR)
Wed 04:41:05 AM -34.5857 148.9309 62° Northeast 149 171 9,000  Level Aus ATC (RADAR)
Wed 04:42:10 AM -34.5639 148.9802 62° Northeast 151 174 9,000  Level Aus ATC (RADAR)
Wed 04:42:50 AM -34.5511 149.0105 63° Northeast 150 173 9,000  Level Aus ATC (RADAR)
Wed 04:43:30 AM -34.5383 149.0413 63° Northeast 150 173 9,000  Level Aus ATC (RADAR)
Wed 04:44:10 AM -34.5253 149.0721 63° Northeast 151 174 9,000  Level Aus ATC (RADAR)
Wed 04:45:15 AM -34.5042 149.1221 63° Northeast 151 174 9,000  Level Aus ATC (RADAR)
Wed 04:46:25 AM -34.4806 149.1752 62° Northeast 149 171 9,000  Level Aus ATC (RADAR)
Wed 04:47:10 AM -34.4651 149.2096 61° Northeast 152 175 9,000  Level Aus ATC (RADAR)
Wed 04:48:10 AM -34.4451 149.2546 62° Northeast 150 173 9,000  Level Aus ATC (RADAR)
Wed 04:49:30 AM -34.4184 149.3156 62° Northeast 150 173 9,000  Level Aus ATC (RADAR)
Wed 04:50:24 AM -34.4006 149.3573 63° Northeast 149 171 9,000  Level Aus ATC (RADAR)
Wed 04:51:39 AM -34.3760 149.4138 62° Northeast 149 171 9,000  Level Aus ATC (RADAR)
Wed 04:52:39 AM -34.3567 149.4594 63° Northeast 150 173 9,000  Level Aus ATC (RADAR)
Wed 04:53:19 AM -34.3435 149.4891 62° Northeast 147 169 9,000  Level Aus ATC (RADAR)
Wed 04:53:54 AM -34.3312 149.5150 60° Northeast 149 171 9,000  Level Aus ATC (RADAR)
Wed 04:54:44 AM -34.3143 149.5521 61° Northeast 149 171 9,000  Level Aus ATC (RADAR)
Wed 04:55:44 AM -34.2943 149.5969 62° Northeast 150 173 9,000  Level Aus ATC (RADAR)
Wed 04:56:44 AM -34.2739 149.6421 61° Northeast 151 174 9,000  Level Aus ATC (RADAR)
Wed 04:57:44 AM -34.2539 149.6888 63° Northeast 154 177 9,000  Level Aus ATC (RADAR)
Wed 04:58:24 AM -34.2415 149.7198 64° Northeast 153 176 9,000  Level Aus ATC (RADAR)
Wed 04:58:59 AM -34.2298 149.7464 62° Northeast 152 175 9,000  Level Aus ATC (RADAR)
Wed 04:59:44 AM -34.2146 149.7808 62° Northeast 152 175 9,000  Level Aus ATC (RADAR)
Wed 05:00:44 AM -34.1943 149.8264 62° Northeast 151 174 9,000  Level Aus ATC (RADAR)
Wed 05:01:49 AM -34.1725 149.8754 62° Northeast 149 171 9,000  Level Aus ATC (RADAR)
Wed 05:02:53 AM -34.1507 149.9245 62° Northeast 152 175 9,000  Level Aus ATC (RADAR)
Wed 05:03:38 AM -34.1361 149.9581 62° Northeast 148 170 9,000  Level Aus ATC (RADAR)
Wed 05:04:13 AM -34.1243 149.9845 62° Northeast 150 173 9,000  Level Aus ATC (RADAR)
Wed 05:04:53 AM -34.1109 150.0151 62° Northeast 153 176 9,000  Level Aus ATC (RADAR)
Wed 05:05:23 AM -34.1007 150.0377 61° Northeast 152 175 9,000  Level Aus ATC (RADAR)
Wed 05:05:58 AM -34.0890 150.0640 62° Northeast 150 173 9,000  Level Aus ATC (RADAR)
Wed 05:06:53 AM -34.0702 150.1053 61° Northeast 151 174 9,000  Level Aus ATC (RADAR)
Wed 05:07:53 AM -34.0492 150.1494 60° Northeast 149 171 9,000  Level Aus ATC (RADAR)
Wed 05:08:38 AM -34.0339 150.1825 61° Northeast 149 171 9,000  Level Aus ATC (RADAR)
Wed 05:09:13 AM -34.0219 150.2086 61° Northeast 149 171 9,000  Level Aus ATC (RADAR)
Wed 05:10:03 AM -34.0049 150.2457 61° Northeast 149 171 9,000  Level Aus ATC (RADAR)
Wed 05:11:03 AM -33.9829 150.2904 59° Northeast 153 176 9,000 -261 Level Aus ATC (RADAR)
Wed 05:11:58 AM -33.9613 150.3332 59° Northeast 160 184 8,500 -526 Descending Aus ATC (RADAR)
Wed 05:12:57 AM -33.9399 150.3815 62° Northeast 158 182 8,000 -519 Descending Aus ATC (RADAR)
Wed 05:13:42 AM -33.9249 150.4173 63° Northeast 155 178 7,600 -525 Descending Aus ATC (RADAR)
Wed 05:14:17 AM -33.9220 150.4471 83° East 155 178 7,300 -560 Descending Aus ATC (RADAR)
Wed 05:14:57 AM -33.9247 150.4823 95° East 153 176 6,900 -600 Descending Aus ATC (RADAR)
Wed 05:15:27 AM -33.9265 150.5090 95° East 154 177 6,600 -554 Descending Aus ATC (RADAR)
Wed 05:16:02 AM -33.9284 150.5396 94° East 152 175 6,300 -600 Descending Aus ATC (RADAR)
Wed 05:16:57 AM -33.9320 150.5876 95° East 151 174 5,700 -678 Descending Aus ATC (RADAR)
Wed 05:17:57 AM -33.9360 150.6396 95° East 151 174 5,000 -632 Descending Aus ATC (RADAR)
Wed 05:18:32 AM -33.9385 150.6696 96° East 150 173 4,700 -600 Descending Aus ATC (RADAR)
Wed 05:19:07 AM -33.9413 150.6988 97° East 146 168 4,300 -750 Descending Aus ATC (RADAR)
Wed 05:19:52 AM -33.9444 150.7348 96° East 138 159 3,700 -743 Descending Aus ATC (RADAR)
Wed 05:20:52 AM -33.9468 150.7791 94° East 127 146 3,000 -756 Descending Aus ATC (RADAR)
Wed 05:21:51 AM -33.9462 150.8232 89° East 127 146 2,200 -415 Descending Aus ATC (RADAR)
Wed 05:23:02 AM -33.9431 150.8701 85° East 112 129 2,100 -267 Descending Aus ATC (RADAR)
Wed 05:24:06 AM -33.9248 150.9061 59° Northeast 118 136 1,600 -495 Descending Aus ATC (RADAR)
Wed 05:24:51 AM -33.9119 150.9323 59° Northeast 117 135 1,200 -525 Descending Aus ATC (RADAR)
Wed 05:25:26 AM -33.9047 150.9501 64° Northeast 98 113 900 -525 Descending Aus ATC (RADAR)
Wed 05:26:11 AM -33.9115 150.9687 114° Southeast 78 90 500 -565 Descending Aus ATC (RADAR)
Wed 05:26:51 AM -33.9192 150.9823 124° Southeast 73 84 100 -600 Descending Aus ATC (RADAR)

Login

Don't have an account? Register now (free) for customized features, flight alerts, and more!